Adair, Illinois
Current Conditions -  °F | °C
As of 7:15 PM on Sunday 23 Nov 2014 (Local Time) from KMQB Reporting Station
Drizzle Drizzle  
Wind Chill: 50°   Ceiling: 300
Heat Index: 50°   Visibility: 1.7mi
Dew Point: 50°   Wind: 3mph
Humidity: 100%   Direction: 170°S
Pressure: 29.28"   Gusts: NA
Location:  40.42°N, 90.5°W
Report Text: KMQB 240115Z AUTO 17003KT 1 3/4SM -DZ OVC003 10/10 A2928 RMK AO2 T01020102
Loading
Personal Weather Stations






























Interactive Weather Map New forecast layout! Learn more

10-Day Weather Forecast

Advertisements
Track Severe Weather on mobile